createdAt,value
2022-09-14T00:01:40.236Z,1.53
2022-09-14T00:04:12.431Z,1.20
2022-09-14T00:06:41.019Z,1.73
2022-09-14T00:09:14.667Z,1.67
2022-09-14T00:11:42.636Z,1.70
2022-09-14T00:14:12.008Z,1.60
2022-09-14T00:16:42.797Z,1.57
2022-09-14T00:19:24.558Z,1.30
2022-09-14T00:21:55.436Z,1.60
2022-09-14T00:24:25.149Z,1.53
2022-09-14T00:26:55.103Z,1.70
2022-09-14T00:29:24.713Z,1.80
2022-09-14T00:31:53.402Z,1.60
2022-09-14T00:34:21.519Z,1.50
2022-09-14T00:36:51.896Z,1.50
2022-09-14T00:39:23.457Z,1.20
2022-09-14T00:41:52.575Z,1.67
2022-09-14T00:45:08.097Z,2.10
2022-09-14T00:47:36.445Z,1.53
2022-09-14T00:50:06.852Z,1.20
2022-09-14T00:52:38.737Z,1.73
2022-09-14T00:55:10.657Z,1.33
2022-09-14T00:57:43.031Z,1.80
2022-09-14T01:00:16.509Z,1.80
2022-09-14T01:02:45.184Z,1.43
2022-09-14T01:05:14.641Z,1.50
2022-09-14T01:08:02.173Z,1.40
2022-09-14T01:10:46.901Z,1.40
2022-09-14T01:13:31.493Z,1.13
2022-09-14T01:16:08.694Z,1.73
2022-09-14T01:18:40.300Z,1.57
2022-09-14T01:21:13.496Z,1.60
2022-09-14T01:23:50.320Z,1.57
2022-09-14T01:26:45.180Z,1.57
2022-09-14T01:29:19.402Z,1.47
2022-09-14T01:31:53.668Z,1.73
2022-09-14T01:34:32.260Z,1.87
2022-09-14T01:37:05.792Z,1.47
2022-09-14T01:39:36.747Z,2.20
2022-09-14T01:42:06.117Z,1.37
2022-09-14T01:44:39.840Z,1.33
2022-09-14T01:47:13.448Z,1.60
2022-09-14T01:49:45.330Z,1.80
2022-09-14T01:52:18.121Z,1.30
2022-09-14T01:54:51.720Z,1.10
2022-09-14T01:57:24.771Z,1.30
2022-09-14T01:59:58.017Z,1.27
2022-09-14T02:02:31.995Z,1.50
2022-09-14T02:05:08.291Z,1.60
2022-09-14T02:07:37.932Z,1.30
2022-09-14T02:10:09.996Z,1.63
2022-09-14T02:12:38.293Z,1.53
2022-09-14T02:15:12.047Z,1.70
2022-09-14T02:17:40.768Z,2.10
2022-09-14T02:20:17.340Z,1.10
2022-09-14T02:22:45.665Z,1.70
2022-09-14T02:25:13.751Z,1.50
2022-09-14T02:27:41.669Z,1.43
2022-09-14T02:30:12.569Z,1.43
2022-09-14T02:32:50.257Z,1.30
2022-09-14T02:35:24.502Z,1.50
2022-09-14T02:38:02.172Z,1.50
2022-09-14T02:40:37.164Z,1.13
2022-09-14T02:43:22.163Z,1.53
2022-09-14T02:46:00.330Z,1.17
2022-09-14T02:48:36.980Z,1.27
2022-09-14T02:51:13.600Z,1.53
2022-09-14T02:53:47.302Z,1.37
2022-09-14T02:56:16.252Z,1.83
2022-09-14T02:58:46.634Z,1.30
2022-09-14T03:01:20.893Z,1.50
2022-09-14T03:03:49.321Z,1.40
2022-09-14T03:06:17.703Z,1.27
2022-09-14T03:08:45.785Z,1.63
2022-09-14T03:11:13.904Z,1.33
2022-09-14T03:13:42.330Z,1.30
2022-09-14T03:16:13.500Z,1.40
2022-09-14T03:18:43.209Z,1.47
2022-09-14T03:21:15.053Z,1.50
2022-09-14T03:23:45.894Z,1.20
2022-09-14T03:26:16.499Z,1.27
2022-09-14T03:28:45.519Z,1.40
2022-09-14T03:31:14.198Z,1.50
2022-09-14T03:33:43.532Z,1.33
2022-09-14T03:36:13.415Z,1.33
2022-09-14T03:38:45.121Z,1.20
2022-09-14T03:41:14.740Z,1.60
2022-09-14T03:43:43.993Z,1.50
2022-09-14T03:46:15.590Z,1.13
2022-09-14T03:48:45.640Z,1.37
2022-09-14T03:51:15.084Z,1.60
2022-09-14T03:53:44.783Z,1.60
2022-09-14T03:56:16.366Z,1.70
2022-09-14T03:58:46.288Z,1.10
2022-09-14T04:01:17.905Z,1.23
2022-09-14T04:03:48.141Z,1.10
2022-09-14T04:06:17.401Z,1.57
2022-09-14T04:08:47.623Z,1.30
2022-09-14T04:11:17.860Z,1.40
2022-09-14T04:13:46.883Z,1.07
2022-09-14T04:16:16.281Z,1.40
2022-09-14T04:18:44.859Z,1.40
2022-09-14T04:21:17.276Z,1.33
2022-09-14T04:24:12.760Z,1.10
2022-09-14T04:26:34.701Z,1.37
2022-09-14T04:29:02.909Z,1.00
2022-09-14T04:31:30.936Z,1.60
2022-09-14T04:33:59.179Z,1.40
2022-09-14T04:36:30.985Z,1.10
2022-09-14T04:39:01.834Z,1.00
2022-09-14T04:41:31.929Z,1.20
2022-09-14T04:44:00.887Z,1.17
2022-09-14T04:46:31.127Z,1.13
2022-09-14T04:48:59.797Z,1.00
2022-09-14T04:51:32.532Z,1.40
2022-09-14T04:54:02.428Z,2.20
2022-09-14T04:56:33.784Z,2.27
2022-09-14T04:59:04.768Z,2.57
2022-09-14T05:01:37.234Z,2.53
2022-09-14T05:04:06.434Z,2.17
2022-09-14T05:06:41.851Z,2.80
2022-09-14T05:09:14.421Z,2.60
2022-09-14T05:11:43.355Z,2.23
2022-09-14T05:14:13.893Z,2.63
2022-09-14T05:16:43.409Z,2.50
2022-09-14T05:19:15.065Z,3.13
2022-09-14T05:21:44.803Z,2.60
2022-09-14T05:24:15.623Z,3.47
2022-09-14T05:26:45.638Z,2.83
2022-09-14T05:29:15.483Z,3.07
2022-09-14T05:31:44.060Z,2.80
2022-09-14T05:34:13.332Z,3.27
2022-09-14T05:36:42.080Z,3.13
2022-09-14T05:39:11.745Z,2.20
2022-09-14T05:41:39.703Z,3.40
2022-09-14T05:44:08.180Z,3.13
2022-09-14T05:46:36.452Z,2.47
2022-09-14T05:49:04.521Z,3.10
2022-09-14T05:51:32.522Z,2.80
2022-09-14T05:54:00.953Z,2.97
2022-09-14T05:56:32.521Z,2.47
2022-09-14T05:59:00.553Z,2.40
2022-09-14T06:01:32.907Z,2.63
2022-09-14T06:04:03.209Z,2.80
2022-09-14T06:06:33.449Z,2.47
2022-09-14T06:09:02.115Z,2.70
2022-09-14T06:11:33.659Z,1.93
2022-09-14T06:14:01.864Z,2.10
2022-09-14T06:16:30.716Z,2.43
2022-09-14T06:19:00.388Z,2.33
2022-09-14T06:21:31.756Z,2.30
2022-09-14T06:24:00.454Z,2.53
2022-09-14T06:26:28.440Z,2.00
2022-09-14T06:28:58.142Z,2.07
2022-09-14T06:31:26.566Z,2.40
2022-09-14T06:33:54.866Z,1.97
2022-09-14T06:36:25.224Z,2.17
2022-09-14T06:38:54.267Z,1.73
2022-09-14T06:41:26.429Z,2.07
2022-09-14T06:43:57.757Z,1.73
2022-09-14T06:46:28.255Z,1.70
2022-09-14T06:48:58.928Z,1.43
2022-09-14T06:51:29.451Z,1.47
2022-09-14T06:53:59.353Z,1.67
2022-09-14T06:56:28.266Z,1.40
2022-09-14T06:58:58.105Z,1.50
2022-09-14T07:01:27.595Z,1.50
2022-09-14T07:03:55.895Z,1.70
2022-09-14T07:06:26.712Z,1.10
2022-09-14T07:08:55.662Z,2.00
2022-09-14T07:11:26.733Z,1.33
2022-09-14T07:13:58.628Z,1.50
2022-09-14T07:16:29.582Z,1.30
2022-09-14T07:19:00.049Z,1.50
2022-09-14T07:21:29.140Z,1.63
2022-09-14T07:23:57.082Z,1.33
2022-09-14T07:26:26.626Z,2.00
2022-09-14T07:28:57.810Z,1.33
2022-09-14T07:31:29.832Z,1.53
2022-09-14T07:33:59.643Z,1.40
2022-09-14T07:36:33.970Z,1.30
2022-09-14T07:39:05.336Z,1.23
2022-09-14T07:41:34.765Z,1.50
2022-09-14T07:44:05.520Z,2.00
2022-09-14T07:46:40.406Z,1.80
2022-09-14T07:49:10.163Z,1.70
2022-09-14T07:51:39.141Z,1.27
2022-09-14T07:54:10.028Z,1.10
2022-09-14T07:56:38.264Z,1.67
2022-09-14T07:59:31.262Z,1.40
2022-09-14T08:01:55.909Z,1.30
2022-09-14T08:04:24.085Z,1.33
2022-09-14T08:06:52.070Z,1.60
2022-09-14T08:09:20.434Z,1.20
2022-09-14T08:11:48.406Z,1.70
2022-09-14T08:14:16.470Z,1.60
2022-09-14T08:16:44.480Z,1.53
2022-09-14T08:19:18.223Z,1.60
2022-09-14T08:21:47.649Z,1.63
2022-09-14T08:24:19.907Z,1.40
2022-09-14T08:26:49.065Z,1.40
2022-09-14T08:29:18.884Z,1.43
2022-09-14T08:31:48.053Z,1.80
2022-09-14T08:34:18.281Z,1.60
2022-09-14T08:36:49.271Z,1.63
2022-09-14T08:39:18.480Z,1.83
2022-09-14T08:41:53.365Z,1.60
2022-09-14T08:44:27.223Z,1.50
2022-09-14T08:47:00.769Z,1.70
2022-09-14T08:49:46.198Z,1.40
2022-09-14T08:52:23.964Z,1.63
2022-09-14T08:54:57.197Z,1.53
2022-09-14T08:57:34.480Z,1.70
2022-09-14T09:00:09.813Z,1.90
2022-09-14T09:03:06.405Z,1.70
2022-09-14T09:05:41.266Z,1.80
2022-09-14T09:08:19.639Z,1.57
2022-09-14T09:10:49.448Z,1.70
2022-09-14T09:13:22.375Z,2.03
2022-09-14T09:15:53.141Z,1.73
2022-09-14T09:18:29.636Z,1.40
2022-09-14T09:21:02.702Z,2.40
2022-09-14T09:23:33.114Z,1.77
2022-09-14T09:26:05.509Z,2.00
2022-09-14T09:28:34.657Z,1.70
2022-09-14T09:31:10.155Z,2.13
2022-09-14T09:33:39.604Z,2.23
2022-09-14T09:36:13.534Z,1.57
2022-09-14T09:38:41.851Z,2.00
2022-09-14T09:41:16.815Z,1.93
2022-09-14T09:44:01.422Z,1.90
2022-09-14T09:46:32.513Z,2.00
2022-09-14T09:49:04.864Z,2.10
2022-09-14T09:51:35.798Z,2.57
2022-09-14T09:54:23.264Z,1.80
2022-09-14T09:56:56.146Z,1.97
2022-09-14T09:59:32.768Z,1.97
2022-09-14T10:02:24.295Z,1.90
2022-09-14T10:05:04.517Z,2.70
2022-09-14T10:07:38.633Z,2.20
2022-09-14T10:10:10.945Z,2.77
2022-09-14T10:12:42.037Z,2.60
2022-09-14T10:15:21.561Z,2.33
2022-09-14T10:18:09.296Z,2.27
2022-09-14T10:20:39.289Z,2.37
2022-09-14T10:23:26.433Z,2.00
2022-09-14T10:26:21.541Z,2.90
2022-09-14T10:28:51.454Z,2.17
2022-09-14T10:31:27.048Z,2.60
2022-09-14T10:33:57.418Z,2.10
2022-09-14T10:36:30.301Z,2.63
2022-09-14T10:39:04.389Z,2.30
2022-09-14T10:41:45.257Z,1.93
2022-09-14T10:44:40.639Z,2.00
2022-09-14T10:47:31.354Z,1.43
2022-09-14T10:50:16.082Z,1.70
2022-09-14T10:52:53.745Z,1.43
2022-09-14T10:55:34.180Z,1.60
2022-09-14T10:58:24.626Z,1.70
2022-09-14T11:01:09.994Z,1.83
2022-09-14T11:03:53.258Z,1.63
2022-09-14T11:06:36.688Z,1.90
2022-09-14T11:09:16.681Z,1.60
2022-09-14T11:11:56.032Z,1.73
2022-09-14T11:14:44.946Z,1.40
2022-09-14T11:18:01.731Z,1.27
2022-09-14T11:20:42.683Z,1.50
2022-09-14T11:23:34.931Z,1.40
2022-09-14T11:26:08.913Z,1.80
2022-09-14T11:28:42.271Z,1.40
2022-09-14T11:31:20.775Z,1.53
2022-09-14T11:33:55.210Z,1.53
2022-09-14T11:36:26.957Z,1.60
2022-09-14T11:39:04.693Z,1.40
2022-09-14T11:41:42.630Z,1.63
2022-09-14T11:44:16.858Z,3.37
2022-09-14T11:46:54.267Z,4.00
2022-09-14T11:49:31.829Z,4.60
2022-09-14T11:52:08.150Z,3.87
2022-09-14T11:54:44.655Z,4.17
2022-09-14T11:57:18.839Z,3.50
2022-09-14T11:59:54.029Z,4.00
2022-09-14T12:03:02.702Z,3.80
2022-09-14T12:05:36.249Z,4.63
2022-09-14T12:08:39.610Z,5.00
2022-09-14T12:11:34.615Z,5.33
2022-09-14T12:14:30.233Z,4.37
2022-09-14T12:17:28.605Z,5.33
2022-09-14T12:20:27.096Z,1.87
2022-09-14T12:23:07.877Z,2.20
2022-09-14T12:25:38.742Z,1.97
2022-09-14T12:28:31.292Z,2.00
2022-09-14T12:31:31.911Z,1.93
2022-09-14T12:34:21.025Z,1.47
2022-09-14T12:37:29.447Z,2.00
2022-09-14T12:40:36.466Z,1.70
2022-09-14T12:43:53.991Z,1.80
2022-09-14T12:46:41.565Z,2.00
2022-09-14T12:49:35.419Z,1.60
2022-09-14T12:52:36.741Z,1.77
2022-09-14T12:55:24.820Z,2.20
2022-09-14T12:58:02.736Z,1.40
2022-09-14T13:00:44.961Z,1.50
2022-09-14T13:03:32.373Z,1.90
2022-09-14T13:06:00.377Z,1.37
2022-09-14T13:08:30.148Z,1.70
2022-09-14T13:10:58.141Z,1.30
2022-09-14T13:13:32.878Z,1.90
2022-09-14T13:16:04.148Z,1.50
2022-09-14T13:18:35.489Z,1.70
2022-09-14T13:21:18.373Z,1.73
2022-09-14T13:23:47.784Z,2.50
2022-09-14T13:26:21.084Z,1.37
2022-09-14T13:28:52.522Z,1.67
2022-09-14T13:31:29.390Z,1.73
2022-09-14T13:33:58.468Z,1.20
2022-09-14T13:36:30.605Z,1.53
2022-09-14T13:39:01.921Z,1.87
2022-09-14T13:41:32.419Z,1.50
2022-09-14T13:44:01.648Z,1.23
2022-09-14T13:46:30.128Z,1.50
2022-09-14T13:48:58.352Z,1.37
2022-09-14T13:51:29.640Z,1.60
2022-09-14T13:54:08.830Z,1.10
2022-09-14T13:56:36.770Z,1.50
2022-09-14T13:59:23.285Z,1.40
2022-09-14T14:01:59.087Z,1.40
2022-09-14T14:04:35.270Z,1.70
2022-09-14T14:07:16.930Z,1.83
2022-09-14T14:09:50.849Z,1.40
2022-09-14T14:12:26.872Z,1.40
2022-09-14T14:14:57.977Z,1.57
2022-09-14T14:17:36.663Z,1.40
2022-09-14T14:20:32.440Z,1.50
2022-09-14T14:23:05.009Z,1.60
2022-09-14T14:25:41.002Z,1.40
2022-09-14T14:28:18.940Z,1.53
2022-09-14T14:30:46.975Z,1.23
2022-09-14T14:33:19.075Z,1.30
2022-09-14T14:35:48.918Z,1.60
2022-09-14T14:38:17.034Z,1.27
2022-09-14T14:40:47.688Z,1.40
2022-09-14T14:43:20.617Z,1.50
2022-09-14T14:45:49.411Z,1.10
2022-09-14T14:48:18.245Z,1.10
2022-09-14T14:50:47.272Z,1.77
2022-09-14T14:53:15.476Z,1.70
2022-09-14T14:55:43.810Z,1.80
2022-09-14T14:58:18.448Z,1.70
2022-09-14T15:00:47.415Z,2.07
2022-09-14T15:03:16.308Z,1.80
2022-09-14T15:05:45.841Z,1.70
2022-09-14T15:08:16.780Z,1.73
2022-09-14T15:10:45.217Z,1.90
2022-09-14T15:13:14.982Z,1.37
2022-09-14T15:15:44.345Z,1.53
2022-09-14T15:18:12.313Z,1.70
2022-09-14T15:20:40.361Z,2.27
2022-09-14T15:23:09.854Z,2.40
2022-09-14T15:25:37.806Z,2.20
2022-09-14T15:28:05.746Z,2.00
2022-09-14T15:30:35.010Z,1.97
2022-09-14T15:33:03.023Z,1.73
2022-09-14T15:35:30.984Z,2.10
2022-09-14T15:37:58.898Z,1.77
2022-09-14T15:40:26.918Z,2.20
2022-09-14T15:42:55.044Z,2.10
2022-09-14T15:45:23.075Z,1.53
2022-09-14T15:47:52.438Z,2.40
2022-09-14T15:50:20.425Z,1.80
2022-09-14T15:52:48.347Z,1.53
2022-09-14T15:55:16.297Z,1.90
2022-09-14T15:57:44.262Z,1.83
2022-09-14T16:00:14.460Z,1.50
2022-09-14T16:02:42.663Z,1.70
2022-09-14T16:05:12.825Z,1.73
2022-09-14T16:07:40.753Z,1.47
2022-09-14T16:10:10.323Z,1.33
2022-09-14T16:12:38.257Z,1.80
2022-09-14T16:15:07.743Z,1.60
2022-09-14T16:17:35.664Z,1.20
2022-09-14T16:20:08.577Z,1.40
2022-09-14T16:22:37.941Z,1.50
2022-09-14T16:25:06.702Z,1.50
2022-09-14T16:27:35.309Z,1.33
2022-09-14T16:30:03.276Z,1.80
2022-09-14T16:32:31.252Z,1.40
2022-09-14T16:34:59.175Z,1.30
2022-09-14T16:37:27.749Z,1.37
2022-09-14T16:39:58.172Z,1.47
2022-09-14T16:42:26.145Z,1.63
2022-09-14T16:44:54.138Z,1.40
2022-09-14T16:47:22.101Z,1.40
2022-09-14T16:49:50.069Z,1.17
2022-09-14T16:52:18.046Z,1.70
2022-09-14T16:54:45.980Z,1.83
2022-09-14T16:57:15.360Z,1.80
2022-09-14T16:59:43.401Z,1.10
2022-09-14T17:02:12.086Z,1.00
2022-09-14T17:04:40.173Z,1.40
2022-09-14T17:07:08.071Z,1.63
2022-09-14T17:09:36.056Z,1.73
2022-09-14T17:12:04.687Z,1.37
2022-09-14T17:14:34.861Z,1.87
2022-09-14T17:17:02.909Z,1.27
2022-09-14T17:19:30.981Z,1.30
2022-09-14T17:21:59.248Z,1.37
2022-09-14T17:24:27.346Z,1.40
2022-09-14T17:26:55.305Z,1.40
2022-09-14T17:29:23.416Z,1.60
2022-09-14T17:31:55.236Z,1.30
2022-09-14T17:34:23.348Z,1.70
2022-09-14T17:36:51.276Z,1.50
2022-09-14T17:39:19.236Z,1.40
2022-09-14T17:41:47.195Z,1.80
2022-09-14T17:44:16.192Z,1.43
2022-09-14T17:46:52.131Z,1.73
2022-09-14T17:49:22.835Z,1.40
2022-09-14T17:51:51.170Z,1.60
2022-09-14T17:54:20.074Z,1.70
2022-09-14T17:56:48.665Z,2.73
2022-09-14T17:59:19.979Z,2.03
2022-09-14T18:01:49.151Z,3.27
2022-09-14T18:04:18.192Z,2.67
2022-09-14T18:06:49.723Z,3.10
2022-09-14T18:09:22.338Z,3.90
2022-09-14T18:11:51.428Z,3.93
2022-09-14T18:14:19.555Z,4.20
2022-09-14T18:16:47.548Z,3.40
2022-09-14T18:19:16.292Z,3.27
2022-09-14T18:21:50.243Z,3.43
2022-09-14T18:24:21.699Z,3.27
2022-09-14T18:26:49.722Z,3.17
2022-09-14T18:29:22.995Z,3.00
2022-09-14T18:31:51.168Z,3.13
2022-09-14T18:34:20.760Z,2.90
2022-09-14T18:36:49.099Z,3.00
2022-09-14T18:39:17.182Z,3.60
2022-09-14T18:41:47.937Z,2.90
2022-09-14T18:44:16.099Z,3.50
2022-09-14T18:46:45.704Z,2.83
2022-09-14T18:49:15.145Z,3.50
2022-09-14T18:51:43.438Z,3.03
2022-09-14T18:54:13.676Z,2.60
2022-09-14T18:56:42.054Z,2.70
2022-09-14T18:59:13.789Z,3.57
2022-09-14T19:01:42.605Z,4.00
2022-09-14T19:04:12.775Z,2.90
2022-09-14T19:06:41.790Z,3.07
2022-09-14T19:09:10.668Z,3.17
2022-09-14T19:11:38.805Z,2.53
2022-09-14T19:14:10.242Z,2.70
2022-09-14T19:16:41.694Z,2.87
2022-09-14T19:19:12.417Z,2.60
2022-09-14T19:21:40.436Z,3.63
2022-09-14T19:24:12.165Z,2.33
2022-09-14T19:26:45.207Z,2.37
2022-09-14T19:29:14.932Z,2.10
2022-09-14T19:31:44.582Z,2.67
2022-09-14T19:34:12.951Z,2.77
2022-09-14T19:36:41.097Z,3.43
2022-09-14T19:39:09.622Z,1.97
2022-09-14T19:41:38.584Z,2.60
2022-09-14T19:44:07.638Z,1.90
2022-09-14T19:46:38.507Z,3.00
2022-09-14T19:49:08.838Z,2.50
2022-09-14T19:51:36.787Z,3.10
2022-09-14T19:54:05.267Z,2.50
2022-09-14T19:56:33.586Z,2.43
2022-09-14T19:59:04.894Z,2.67
2022-09-14T20:01:35.165Z,2.30
2022-09-14T20:04:04.826Z,2.30
2022-09-14T20:06:36.248Z,2.27
2022-09-14T20:09:07.500Z,1.83
2022-09-14T20:11:37.428Z,2.43
2022-09-14T20:14:09.238Z,2.27
2022-09-14T20:16:39.377Z,2.10
2022-09-14T20:19:11.110Z,1.97
2022-09-14T20:21:41.333Z,1.80
2022-09-14T20:24:17.789Z,2.27
2022-09-14T20:26:46.803Z,2.40
2022-09-14T20:29:15.588Z,2.33
2022-09-14T20:31:43.908Z,2.30
2022-09-14T20:34:12.076Z,2.30
2022-09-14T20:36:41.388Z,1.47
2022-09-14T20:39:11.308Z,2.20
2022-09-14T20:41:39.792Z,1.83
2022-09-14T20:44:08.121Z,2.47
2022-09-14T20:46:39.110Z,2.00
2022-09-14T20:49:10.029Z,2.17
2022-09-14T20:51:38.598Z,2.10
2022-09-14T20:54:10.517Z,2.27
2022-09-14T20:56:39.273Z,2.37
2022-09-14T20:59:12.089Z,1.73
2022-09-14T21:01:42.478Z,1.97
2022-09-14T21:04:13.516Z,2.03
2022-09-14T21:06:44.219Z,2.17
2022-09-14T21:09:15.143Z,1.63
2022-09-14T21:11:45.641Z,2.03
2022-09-14T21:14:14.658Z,1.93
2022-09-14T21:16:48.439Z,1.37
2022-09-14T21:19:19.992Z,1.83
2022-09-14T21:21:49.323Z,1.97
2022-09-14T21:24:21.048Z,1.83
2022-09-14T21:26:49.070Z,2.10
2022-09-14T21:29:20.214Z,1.83
2022-09-14T21:31:49.646Z,2.00
2022-09-14T21:34:17.899Z,1.83
2022-09-14T21:36:48.177Z,2.13
2022-09-14T21:39:21.391Z,2.30
2022-09-14T21:41:53.454Z,2.37
2022-09-14T21:44:29.787Z,2.60
2022-09-14T21:46:57.815Z,2.27
2022-09-14T21:49:25.731Z,2.80
2022-09-14T21:51:53.698Z,2.17
2022-09-14T21:54:23.192Z,3.40
2022-09-14T21:56:51.170Z,2.20
2022-09-14T21:59:21.481Z,1.87
2022-09-14T22:01:50.163Z,1.80
2022-09-14T22:04:21.171Z,1.73
2022-09-14T22:06:51.181Z,2.33
2022-09-14T22:09:23.021Z,2.57
2022-09-14T22:11:51.048Z,2.50
2022-09-14T22:14:21.468Z,1.73
2022-09-14T22:16:50.315Z,2.40
2022-09-14T22:19:21.549Z,1.67
2022-09-14T22:21:50.920Z,1.37
2022-09-14T22:24:24.649Z,1.63
2022-09-14T22:26:54.117Z,2.00
2022-09-14T22:29:22.176Z,1.97
2022-09-14T22:31:50.775Z,2.03
2022-09-14T22:34:18.876Z,2.03
2022-09-14T22:36:46.827Z,2.20
2022-09-14T22:39:15.082Z,1.90
2022-09-14T22:41:44.729Z,1.50
2022-09-14T22:44:13.609Z,1.80
2022-09-14T22:46:42.000Z,1.60
2022-09-14T22:49:10.276Z,1.90
2022-09-14T22:51:38.311Z,1.73
2022-09-14T22:54:07.179Z,2.10
2022-09-14T22:56:38.271Z,1.70
2022-09-14T22:59:10.548Z,1.90
2022-09-14T23:01:42.742Z,1.70
2022-09-14T23:04:14.522Z,2.43
2022-09-14T23:06:44.838Z,2.10
2022-09-14T23:09:16.165Z,1.80
2022-09-14T23:11:45.195Z,2.00
2022-09-14T23:14:16.716Z,1.80
2022-09-14T23:16:45.650Z,1.60
2022-09-14T23:19:17.673Z,2.10
2022-09-14T23:21:46.479Z,1.90
2022-09-14T23:24:14.695Z,1.87
2022-09-14T23:26:42.798Z,1.70
2022-09-14T23:29:16.717Z,1.77
2022-09-14T23:31:45.355Z,1.57
2022-09-14T23:34:13.840Z,1.93
2022-09-14T23:36:42.150Z,2.23
2022-09-14T23:39:11.083Z,1.90
2022-09-14T23:41:39.911Z,1.70
2022-09-14T23:46:35.464Z,1.80
2022-09-14T23:49:03.477Z,1.30
2022-09-14T23:51:31.782Z,1.97
2022-09-14T23:53:59.749Z,2.20
2022-09-14T23:56:27.876Z,1.87
2022-09-14T23:58:56.046Z,1.40
